Time;durP1;ratioP1;P1;durP2;ratioP2;P2;SDS_P1;SDS_P2;PMS_P1;PMS_P2;Temp;Humidity;BMP_temperature;BMP_pressure;BME280_temperature;BME280_humidity;BME280_pressure;Samples;Min_cycle;Max_cycle;Signal;HPM_P1;HPM_P2
2023/04/27 00:01:13;;;;;;;8.07;3.70;;;;;;;6.48;58.52;98417.72;4962071;28;20484;-76
2023/04/27 00:03:40;;;;;;;8.70;3.90;;;;;;;6.42;60.61;98407.84;4981098;28;20026;-77
2023/04/27 00:06:05;;;;;;;6.35;3.53;;;;;;;6.12;61.84;98406.72;4972582;28;20038;-76
2023/04/27 00:08:30;;;;;;;7.20;4.05;;;;;;;6.14;63.17;98404.66;4982691;28;20105;-76
2023/04/27 00:10:57;;;;;;;6.70;3.75;;;;;;;5.97;63.89;98406.16;4975336;28;20396;-76
2023/04/27 00:13:22;;;;;;;6.85;3.45;;;;;;;5.75;64.79;98405.56;4990240;28;20365;-76
2023/04/27 00:15:48;;;;;;;6.20;4.05;;;;;;;5.90;64.51;98403.53;4957747;28;20611;-76
2023/04/27 00:18:13;;;;;;;6.18;3.83;;;;;;;5.78;64.80;98404.31;4957848;28;20030;-76
2023/04/27 00:20:39;;;;;;;6.25;3.67;;;;;;;5.63;65.85;98406.41;4957627;28;20059;-75
2023/04/27 00:23:04;;;;;;;7.43;3.72;;;;;;;5.49;66.85;98395.75;4957510;28;20522;-76
2023/04/27 00:25:30;;;;;;;5.22;3.58;;;;;;;5.68;66.06;98401.25;4988641;28;20034;-77
2023/04/27 00:27:55;;;;;;;6.88;3.42;;;;;;;5.59;65.66;98398.81;4993256;28;20064;-76
2023/04/27 00:30:20;;;;;;;5.97;3.53;;;;;;;5.73;66.85;98399.63;4976417;28;20130;-76
2023/04/27 00:32:46;;;;;;;7.10;3.58;;;;;;;5.78;66.56;98398.97;4976898;28;20053;-76
2023/04/27 00:35:14;;;;;;;5.80;3.40;;;;;;;5.81;65.13;98391.34;4977196;28;20056;-75
2023/04/27 00:37:40;;;;;;;5.55;3.53;;;;;;;5.93;65.33;98397.72;4993441;28;20026;-75
2023/04/27 00:40:07;;;;;;;7.10;4.05;;;;;;;5.76;65.31;98390.34;4974480;28;20046;-75
2023/04/27 00:42:33;;;;;;;5.00;3.42;;;;;;;5.73;65.61;98388.94;4973718;28;20107;-77
2023/04/27 00:44:58;;;;;;;8.35;3.80;;;;;;;5.76;65.39;98393.03;4957092;28;20034;-77
2023/04/27 00:47:24;;;;;;;5.80;3.50;;;;;;;5.71;65.85;98387.47;4957752;28;20035;-77
2023/04/27 00:49:50;;;;;;;8.35;3.80;;;;;;;5.54;64.69;98392.44;4957496;28;20034;-77
2023/04/27 00:52:15;;;;;;;6.75;4.20;;;;;;;5.52;67.33;98392.66;4957559;28;20114;-77
2023/04/27 00:54:41;;;;;;;5.97;3.90;;;;;;;5.62;67.22;98394.09;4962036;28;20045;-77
2023/04/27 00:57:07;;;;;;;5.75;4.28;;;;;;;5.64;66.10;98384.00;4996102;28;20071;-77
2023/04/27 00:59:33;;;;;;;7.38;4.38;;;;;;;5.54;67.00;98382.59;4986563;28;20043;-77
2023/04/27 01:01:58;;;;;;;5.65;3.85;;;;;;;5.68;67.31;98383.38;4959065;28;20122;-77
2023/04/27 01:04:24;;;;;;;7.28;3.78;;;;;;;5.80;66.53;98388.91;4958796;28;20062;-78
2023/04/27 01:06:50;;;;;;;8.40;3.78;;;;;;;5.61;66.05;98382.56;4987093;28;20033;-78
2023/04/27 01:09:18;;;;;;;9.05;4.03;;;;;;;5.81;65.59;98387.88;4987637;28;20513;-78
2023/04/27 01:11:44;;;;;;;6.20;3.42;;;;;;;5.78;66.32;98383.78;4977518;28;20140;-77
2023/04/27 01:14:10;;;;;;;7.32;3.70;;;;;;;5.72;66.88;98375.78;5000688;28;20503;-77
2023/04/27 01:16:36;;;;;;;8.77;4.25;;;;;;;5.44;68.24;98376.84;4974647;28;20027;-77
2023/04/27 01:19:01;;;;;;;4.97;3.40;;;;;;;5.51;64.86;98372.31;4965497;28;20027;-77
2023/04/27 01:21:26;;;;;;;5.70;3.70;;;;;;;5.41;64.52;98377.25;5002960;28;20111;-79
2023/04/27 01:23:52;;;;;;;6.30;3.67;;;;;;;5.64;64.80;98382.16;4977208;28;20038;-77
2023/04/27 01:26:18;;;;;;;5.68;3.63;;;;;;;5.73;66.09;98380.91;4973796;28;20034;-76
2023/04/27 01:28:44;;;;;;;6.18;3.88;;;;;;;5.62;67.33;98384.22;4972969;28;20522;-77
2023/04/27 01:31:10;;;;;;;4.53;3.70;;;;;;;5.72;65.54;98384.59;4956650;28;20029;-74
2023/04/27 01:33:36;;;;;;;6.10;3.58;;;;;;;5.80;63.86;98386.22;4956239;28;20043;-75
2023/04/27 01:36:01;;;;;;;6.75;3.80;;;;;;;5.44;67.05;98387.53;4972472;28;20031;-75
2023/04/27 01:38:27;;;;;;;4.38;3.55;;;;;;;5.55;66.25;98384.22;4956240;28;20066;-75
2023/04/27 01:40:54;;;;;;;6.05;3.63;;;;;;;5.51;65.97;98383.00;4987698;28;20131;-75
2023/04/27 01:43:19;;;;;;;7.90;3.67;;;;;;;5.72;65.27;98378.44;4956252;28;20041;-77
2023/04/27 01:45:45;;;;;;;6.03;3.85;;;;;;;5.69;64.98;98378.88;4988636;28;20027;-77
2023/04/27 01:48:10;;;;;;;5.40;3.67;;;;;;;5.63;65.63;98387.69;4956397;28;20042;-77
2023/04/27 01:50:36;;;;;;;5.80;3.58;;;;;;;5.65;63.15;98383.00;4956128;28;20110;-77
2023/04/27 01:53:02;;;;;;;5.97;3.78;;;;;;;5.78;65.59;98390.97;4955758;28;20061;-76
2023/04/27 01:55:27;;;;;;;7.68;4.00;;;;;;;5.47;65.66;98381.78;4970859;28;20545;-76
2023/04/27 01:57:53;;;;;;;7.18;3.53;;;;;;;5.51;65.66;98382.16;4976694;28;20045;-76
2023/04/27 02:00:18;;;;;;;5.25;3.53;;;;;;;5.41;65.57;98387.94;4983704;28;20031;-76
2023/04/27 02:02:46;;;;;;;5.43;3.92;;;;;;;5.70;65.50;98391.19;4986905;28;20046;-76
2023/04/27 02:05:11;;;;;;;7.90;4.35;;;;;;;5.65;67.29;98393.69;4979989;28;20029;-76
2023/04/27 02:07:37;;;;;;;9.07;4.03;;;;;;;5.67;66.77;98391.63;4978514;28;20089;-75
2023/04/27 02:10:02;;;;;;;5.00;4.00;;;;;;;5.66;66.15;98395.31;4986772;28;20026;-76
2023/04/27 02:12:28;;;;;;;6.78;4.00;;;;;;;5.65;66.96;98377.66;5002838;28;20045;-76
2023/04/27 02:14:53;;;;;;;7.13;4.25;;;;;;;5.72;66.95;98392.59;4967064;28;20030;-74
2023/04/27 02:17:18;;;;;;;6.63;3.75;;;;;;;5.69;66.92;98394.91;4984822;28;20128;-74
2023/04/27 02:19:44;;;;;;;6.65;3.70;;;;;;;5.81;66.03;98394.03;4980276;28;20060;-74
2023/04/27 02:22:09;;;;;;;7.10;4.60;;;;;;;5.55;67.88;98391.44;4962125;28;20034;-74
2023/04/27 02:24:35;;;;;;;5.38;4.25;;;;;;;5.53;67.07;98388.94;4983091;28;20100;-74
2023/04/27 02:27:01;;;;;;;7.13;4.05;;;;;;;5.66;66.13;98396.13;4970680;28;20034;-77
2023/04/27 02:29:30;;;;;;;10.50;4.18;;;;;;;5.68;66.42;98393.25;4983689;28;20115;-77
2023/04/27 02:31:55;;;;;;;8.73;4.60;;;;;;;5.65;66.93;98396.34;4987082;28;20447;-76
2023/04/27 02:34:20;;;;;;;5.97;4.32;;;;;;;5.82;67.23;98394.84;4983286;28;20031;-76
2023/04/27 02:36:46;;;;;;;6.97;4.18;;;;;;;5.63;67.87;98391.19;4970569;28;20038;-77
2023/04/27 02:39:11;;;;;;;6.47;4.38;;;;;;;5.52;67.07;98389.16;4986916;28;20396;-76
2023/04/27 02:41:37;;;;;;;4.70;3.83;;;;;;;5.56;67.09;98385.88;4985175;28;20050;-78
2023/04/27 02:44:02;;;;;;;8.20;4.60;;;;;;;5.64;67.73;98405.38;4980479;28;20061;-77
2023/04/27 02:46:29;;;;;;;6.90;4.53;;;;;;;5.71;67.98;98399.00;4979026;28;20030;-78
2023/04/27 02:48:55;;;;;;;5.57;4.20;;;;;;;5.52;68.02;98400.66;4969416;28;20026;-76
2023/04/27 02:51:22;;;;;;;7.57;4.53;;;;;;;5.59;67.73;98395.31;4968507;28;20507;-76
2023/04/27 02:53:48;;;;;;;7.53;4.43;;;;;;;5.46;68.55;98393.47;4999896;28;20135;-77
2023/04/27 02:56:13;;;;;;;5.45;4.28;;;;;;;5.54;67.82;98393.28;5008494;28;20068;-76
2023/04/27 02:58:39;;;;;;;6.82;4.43;;;;;;;5.53;69.29;98402.28;5011365;28;20018;-73
2023/04/27 03:01:04;;;;;;;6.47;5.15;;;;;;;5.49;69.32;98410.94;4966273;28;20046;-73
2023/04/27 03:03:30;;;;;;;8.55;4.72;;;;;;;5.36;70.07;98410.94;4987346;28;20038;-74
2023/04/27 03:05:55;;;;;;;8.70;5.18;;;;;;;5.51;69.47;98401.69;4988308;28;20106;-74
2023/04/27 03:08:21;;;;;;;6.68;5.10;;;;;;;5.56;69.13;98404.56;4966768;28;20419;-76
2023/04/27 03:10:46;;;;;;;4.78;4.25;;;;;;;5.65;68.63;98407.03;4984662;28;20041;-76
2023/04/27 03:13:13;;;;;;;7.30;5.20;;;;;;;5.49;70.54;98406.41;4992019;28;20022;-77
2023/04/27 03:15:38;;;;;;;6.78;4.85;;;;;;;5.53;69.35;98402.28;4989439;28;20120;-77
2023/04/27 03:18:04;;;;;;;6.82;4.70;;;;;;;5.64;69.20;98410.72;4971734;28;20078;-77
2023/04/27 03:20:29;;;;;;;6.88;5.13;;;;;;;5.52;69.62;98400.66;4971901;28;20034;-76
2023/04/27 03:22:55;;;;;;;6.97;5.95;;;;;;;5.40;70.71;98406.84;4982415;28;20022;-76
2023/04/27 03:25:20;;;;;;;8.95;5.90;;;;;;;5.50;69.64;98413.41;4978104;28;20509;-76
2023/04/27 03:27:45;;;;;;;5.75;5.15;;;;;;;5.43;70.31;98412.59;4996629;28;20026;-76
2023/04/27 03:30:11;;;;;;;8.68;5.32;;;;;;;5.49;70.33;98411.75;4965550;28;20031;-75
2023/04/27 03:32:37;;;;;;;7.72;6.07;;;;;;;5.53;70.62;98402.28;4971380;28;20039;-76
2023/04/27 03:35:03;;;;;;;6.70;5.68;;;;;;;5.52;69.67;98414.03;4988156;28;20042;-76
2023/04/27 03:37:28;;;;;;;8.52;6.05;;;;;;;5.43;69.38;98423.28;4965832;28;20034;-77
2023/04/27 03:39:55;;;;;;;6.55;5.60;;;;;;;5.41;69.72;98414.63;4967415;28;20035;-77
2023/04/27 03:42:21;;;;;;;9.75;5.35;;;;;;;5.42;69.55;98416.28;5004374;28;20041;-75
2023/04/27 03:44:46;;;;;;;7.35;6.57;;;;;;;5.45;70.86;98431.91;4976282;28;20039;-78
2023/04/27 03:47:12;;;;;;;9.25;6.35;;;;;;;5.47;70.35;98424.50;4972930;28;20030;-77
2023/04/27 03:49:38;;;;;;;7.07;6.38;;;;;;;5.32;71.18;98439.91;4973245;28;20065;-77
2023/04/27 03:52:05;;;;;;;7.70;6.55;;;;;;;5.19;70.61;98436.41;4968234;28;20061;-78
2023/04/27 03:54:30;;;;;;;7.72;6.05;;;;;;;5.26;70.48;98437.22;4970251;28;20057;-78
2023/04/27 03:56:56;;;;;;;6.80;5.55;;;;;;;5.29;68.58;98440.34;4979356;28;20068;-73
2023/04/27 03:59:22;;;;;;;8.80;5.82;;;;;;;5.43;69.83;98436.63;5020782;28;20074;-74
2023/04/27 04:01:48;;;;;;;8.25;6.25;;;;;;;5.53;70.45;98436.22;5003671;28;20113;-76
2023/04/27 04:04:14;;;;;;;8.10;5.95;;;;;;;5.45;70.58;98431.91;4957408;28;20090;-76
2023/04/27 04:06:40;;;;;;;8.40;6.25;;;;;;;5.49;70.02;98427.78;4986704;28;20030;-76
2023/04/27 04:09:06;;;;;;;9.32;6.45;;;;;;;5.53;70.69;98434.34;4971001;28;20408;-76
2023/04/27 04:11:32;;;;;;;9.32;7.70;;;;;;;5.36;71.96;98427.81;4966634;28;20137;-78
2023/04/27 04:13:59;;;;;;;9.00;7.80;;;;;;;5.40;71.21;98438.88;4983882;28;20043;-78
2023/04/27 04:16:24;;;;;;;8.80;7.55;;;;;;;5.37;70.68;98424.09;4996083;28;20030;-77
2023/04/27 04:18:51;;;;;;;8.85;6.75;;;;;;;5.52;70.92;98431.91;4989821;28;20038;-78
2023/04/27 04:21:17;;;;;;;9.25;8.52;;;;;;;5.51;71.29;98433.75;4989730;28;20037;-78
2023/04/27 04:23:42;;;;;;;8.45;7.65;;;;;;;5.49;71.24;98433.13;4974711;28;20038;-77
2023/04/27 04:26:08;;;;;;;10.23;8.48;;;;;;;5.51;71.57;98436.41;4982174;28;20066;-77
2023/04/27 04:28:34;;;;;;;8.95;8.15;;;;;;;5.51;71.05;98433.75;4998670;28;20033;-76
2023/04/27 04:31:00;;;;;;;7.80;6.32;;;;;;;5.68;70.29;98431.47;4981043;28;20026;-77
2023/04/27 04:33:25;;;;;;;8.93;7.28;;;;;;;5.76;70.22;98438.47;4976201;28;20030;-74
2023/04/27 04:35:52;;;;;;;9.02;7.28;;;;;;;5.65;70.24;98431.06;4980975;28;20457;-74
2023/04/27 04:38:17;;;;;;;9.07;7.85;;;;;;;5.58;70.58;98437.22;4976192;28;20038;-74
2023/04/27 04:40:43;;;;;;;10.07;6.68;;;;;;;5.47;70.05;98445.88;4964443;28;20392;-74
2023/04/27 04:43:08;;;;;;;9.30;7.20;;;;;;;5.36;70.08;98427.81;4976411;28;20046;-74
2023/04/27 04:45:33;;;;;;;9.65;6.80;;;;;;;5.37;70.10;98444.63;4996510;28;20034;-74
2023/04/27 04:48:02;;;;;;;11.73;7.00;;;;;;;5.24;70.28;98445.47;4979831;28;20448;-74
2023/04/27 04:50:28;;;;;;;11.13;6.70;;;;;;;5.29;68.36;98443.00;4985740;28;20023;-73
2023/04/27 04:52:53;;;;;;;9.77;6.75;;;;;;;5.28;68.93;98449.34;4970244;28;20038;-73
2023/04/27 04:55:19;;;;;;;11.90;6.90;;;;;;;5.28;71.15;98451.19;4988525;28;20068;-73
2023/04/27 04:57:44;;;;;;;9.02;5.40;;;;;;;5.25;69.65;98436.41;4995922;28;20038;-74
2023/04/27 05:00:12;;;;;;;6.32;5.00;;;;;;;5.32;69.02;98447.91;5008684;28;20028;-73
2023/04/27 05:02:41;;;;;;;8.55;6.18;;;;;;;5.70;68.43;98449.94;4976253;28;20041;-75
2023/04/27 05:05:07;;;;;;;9.00;6.60;;;;;;;5.48;66.60;98458.19;4982935;28;20022;-77
2023/04/27 05:07:33;;;;;;;11.05;6.35;;;;;;;5.41;67.95;98456.56;4980805;28;20046;-76
2023/04/27 05:09:58;;;;;;;9.38;7.70;;;;;;;5.67;67.15;98466.41;4996917;28;20464;-77
2023/04/27 05:12:23;;;;;;;14.82;11.73;;;;;;;5.82;67.25;98453.66;4979661;28;20169;-74
2023/04/27 05:14:50;;;;;;;17.42;15.63;;;;;;;6.00;68.40;98457.34;4984852;28;20031;-74
2023/04/27 05:17:15;;;;;;;33.05;29.63;;;;;;;5.73;68.79;98454.91;4985811;28;20077;-74
2023/04/27 05:19:41;;;;;;;23.88;18.23;;;;;;;5.97;68.18;98456.97;4963935;28;20050;-76
2023/04/27 05:22:06;;;;;;;13.02;9.77;;;;;;;6.12;66.65;98460.19;4979192;28;20039;-77
2023/04/27 05:24:32;;;;;;;9.00;7.57;;;;;;;6.02;66.64;98459.81;5001495;28;20563;-74
2023/04/27 05:26:57;;;;;;;9.80;7.35;;;;;;;6.16;66.64;98462.25;4986929;28;20054;-74
2023/04/27 05:29:22;;;;;;;32.45;26.13;;;;;;;6.05;66.75;98470.91;4979548;28;20112;-74
2023/04/27 05:31:48;;;;;;;12.18;10.23;;;;;;;6.22;68.03;98476.63;4995079;28;20053;-74
2023/04/27 05:34:13;;;;;;;6.80;5.63;;;;;;;6.01;68.05;98475.03;5001363;28;20101;-74
2023/04/27 05:36:39;;;;;;;7.50;6.00;;;;;;;6.12;67.83;98486.94;4969428;28;20444;-77
2023/04/27 05:39:05;;;;;;;7.07;5.70;;;;;;;6.54;67.57;98485.56;4963321;28;20026;-77
2023/04/27 05:41:30;;;;;;;10.30;5.10;;;;;;;6.74;65.86;98480.97;4979251;28;20056;-77
2023/04/27 05:43:56;;;;;;;9.57;5.70;;;;;;;6.76;66.13;98476.25;4985882;28;20487;-78
2023/04/27 05:46:21;;;;;;;10.75;5.88;;;;;;;6.93;65.59;98486.22;4987204;28;20049;-76
2023/04/27 05:48:46;;;;;;;8.55;5.65;;;;;;;6.97;62.59;98481.28;4963211;28;20033;-75
2023/04/27 05:51:12;;;;;;;10.80;5.53;;;;;;;6.67;61.92;98480.19;4979032;28;20568;-78
2023/04/27 05:53:37;;;;;;;9.68;5.82;;;;;;;6.98;62.86;98473.03;4969838;28;20031;-78
2023/04/27 05:56:05;;;;;;;8.63;5.65;;;;;;;7.10;61.54;98475.84;4987316;28;20124;-80
2023/04/27 05:58:31;;;;;;;11.25;5.65;;;;;;;6.85;62.22;98482.97;4972592;28;20106;-77
2023/04/27 06:00:57;;;;;;;8.07;4.70;;;;;;;7.26;60.39;98480.66;4985098;28;20104;-77
2023/04/27 06:03:23;;;;;;;10.27;5.75;;;;;;;7.21;60.93;98477.03;4984667;28;20477;-77
2023/04/27 06:05:58;;;;;;;6.68;4.88;;;;;;;7.48;60.28;98481.16;5011534;28;20034;-77
2023/04/27 06:08:24;;;;;;;6.90;4.47;;;;;;;7.21;60.13;98482.38;4983733;28;20039;-77
2023/04/27 06:10:50;;;;;;;8.82;4.65;;;;;;;7.27;60.02;98484.19;4991348;28;20077;-76
2023/04/27 06:13:16;;;;;;;7.07;4.65;;;;;;;7.54;59.25;98477.59;4981186;28;20035;-77
2023/04/27 06:15:42;;;;;;;7.25;4.35;;;;;;;7.42;60.26;98476.66;4962655;28;20109;-77
2023/04/27 06:18:07;;;;;;;9.25;4.50;;;;;;;7.53;60.23;98486.69;4967518;28;20125;-77
2023/04/27 06:20:32;;;;;;;7.53;4.30;;;;;;;7.95;60.09;98475.19;4985016;28;20034;-76
2023/04/27 06:22:59;;;;;;;8.90;4.47;;;;;;;7.86;61.04;98481.88;4979286;28;20042;-77
2023/04/27 06:25:27;;;;;;;7.43;4.60;;;;;;;8.08;59.46;98483.09;4962265;28;20031;-78
2023/04/27 06:27:52;;;;;;;8.75;3.88;;;;;;;8.23;59.41;98488.94;5002659;28;20050;-77
2023/04/27 06:30:18;;;;;;;8.73;4.13;;;;;;;8.35;59.37;98481.81;4989577;28;20058;-77
2023/04/27 06:32:43;;;;;;;6.93;4.10;;;;;;;8.28;57.87;98491.78;4963585;28;20042;-77
2023/04/27 06:35:09;;;;;;;8.05;4.03;;;;;;;8.08;58.48;98480.41;4979289;28;20026;-78
2023/04/27 06:37:34;;;;;;;8.90;3.78;;;;;;;8.31;55.99;98490.53;4983406;28;20042;-78
2023/04/27 06:40:00;;;;;;;5.75;3.47;;;;;;;8.31;55.21;98485.97;4985719;28;20030;-77
2023/04/27 06:42:26;;;;;;;10.18;5.00;;;;;;;8.26;54.49;98488.50;4983780;28;20039;-78
2023/04/27 06:44:54;;;;;;;6.28;4.53;;;;;;;7.91;60.45;98489.25;4968596;28;20088;-77
2023/04/27 06:47:20;;;;;;;9.07;5.22;;;;;;;8.11;54.67;98496.06;4979590;28;20507;-78
2023/04/27 06:49:45;;;;;;;10.02;4.80;;;;;;;8.23;55.70;98494.31;4979129;28;20027;-78
2023/04/27 06:52:10;;;;;;;7.65;4.60;;;;;;;8.17;54.84;98489.81;4967771;28;20042;-80
2023/04/27 06:54:36;;;;;;;8.20;3.67;;;;;;;8.50;54.31;98497.53;4969388;28;20019;-77
2023/04/27 06:57:02;;;;;;;6.53;3.85;;;;;;;8.41;54.59;98495.38;4991077;28;20026;-77
2023/04/27 06:59:27;;;;;;;6.63;3.65;;;;;;;8.61;54.63;98490.63;4977980;28;20034;-77
2023/04/27 07:01:53;;;;;;;7.13;3.50;;;;;;;8.27;56.07;98490.16;4984317;28;20031;-77
2023/04/27 07:04:18;;;;;;;8.38;3.90;;;;;;;8.39;55.60;98490.25;4984220;28;20500;-78
2023/04/27 07:06:43;;;;;;;6.40;4.10;;;;;;;8.49;57.42;98495.09;4979334;28;20503;-77
2023/04/27 07:09:09;;;;;;;5.20;3.72;;;;;;;8.69;57.00;98487.63;4979121;28;20027;-77
2023/04/27 07:11:34;;;;;;;5.07;3.60;;;;;;;8.55;54.99;98483.44;4983531;28;20042;-78
2023/04/27 07:13:59;;;;;;;7.68;3.65;;;;;;;8.60;53.71;98488.97;4985236;28;20082;-77
2023/04/27 07:16:25;;;;;;;5.30;3.42;;;;;;;8.95;53.68;98489.97;4978780;28;20373;-78
2023/04/27 07:18:51;;;;;;;7.88;4.00;;;;;;;8.99;51.91;98488.47;4978388;28;20467;-77
2023/04/27 07:21:16;;;;;;;8.57;4.03;;;;;;;9.12;53.42;98491.00;4983780;28;20039;-77
2023/04/27 07:23:41;;;;;;;7.07;3.85;;;;;;;9.13;53.96;98492.63;5000496;28;20031;-77
2023/04/27 07:26:07;;;;;;;5.10;3.55;;;;;;;9.46;53.04;98501.03;4962103;28;20085;-77
2023/04/27 07:28:35;;;;;;;6.72;3.72;;;;;;;9.64;51.90;98498.25;4977535;28;20062;-77
2023/04/27 07:31:03;;;;;;;7.05;4.22;;;;;;;9.47;51.00;98497.31;4967678;28;20093;-77
2023/04/27 07:33:29;;;;;;;7.32;3.78;;;;;;;9.60;50.24;98497.09;4983982;28;20097;-78
2023/04/27 07:35:55;;;;;;;5.25;3.60;;;;;;;9.81;50.30;98493.03;4978578;28;20034;-77
2023/04/27 07:38:20;;;;;;;9.52;4.07;;;;;;;9.72;52.21;98495.25;4977825;28;20023;-77
2023/04/27 07:40:46;;;;;;;8.70;3.80;;;;;;;9.78;51.53;98496.19;5010085;28;20492;-74
2023/04/27 07:43:11;;;;;;;6.85;3.78;;;;;;;9.86;50.59;98500.41;4980997;28;20117;-77
2023/04/27 07:45:38;;;;;;;5.70;3.60;;;;;;;9.75;49.48;98502.84;4986645;28;20039;-78
2023/04/27 07:48:04;;;;;;;7.30;3.80;;;;;;;10.08;48.30;98515.75;4989093;28;20034;-78
2023/04/27 07:50:30;;;;;;;7.85;4.72;;;;;;;10.19;45.79;98506.06;4966765;28;20551;-78
2023/04/27 07:52:56;;;;;;;6.85;3.85;;;;;;;10.60;45.00;98508.59;4980852;28;20031;-77
2023/04/27 07:55:22;;;;;;;5.57;3.88;;;;;;;10.88;46.66;98511.38;5001651;28;20060;-78
2023/04/27 07:57:49;;;;;;;11.45;3.83;;;;;;;11.17;45.64;98496.03;4997344;28;20030;-77
2023/04/27 08:00:14;;;;;;;6.30;3.58;;;;;;;11.56;45.44;98513.19;4995503;28;20551;-78
2023/04/27 08:02:40;;;;;;;6.82;3.55;;;;;;;11.07;48.83;98512.84;4981059;28;20019;-77
2023/04/27 08:05:05;;;;;;;8.60;3.97;;;;;;;10.63;50.00;98508.16;4986370;28;20377;-76
2023/04/27 08:07:32;;;;;;;6.45;3.85;;;;;;;10.37;49.26;98508.63;4971139;28;20474;-76
2023/04/27 08:09:58;;;;;;;7.47;3.90;;;;;;;10.42;49.62;98506.06;4958095;28;20401;-75
2023/04/27 08:12:23;;;;;;;8.10;4.13;;;;;;;10.44;49.48;98498.56;4987233;28;20030;-76
2023/04/27 08:14:48;;;;;;;7.43;3.80;;;;;;;10.70;49.00;98511.53;5002295;28;20121;-75
2023/04/27 08:17:14;;;;;;;6.55;4.25;;;;;;;10.63;51.42;98502.75;4976150;28;20472;-76
2023/04/27 08:19:39;;;;;;;8.98;4.00;;;;;;;10.64;47.99;98514.34;4981704;28;20049;-76
2023/04/27 08:22:05;;;;;;;9.10;4.00;;;;;;;10.85;47.94;98511.03;4964240;28;20113;-78
2023/04/27 08:24:31;;;;;;;8.52;3.95;;;;;;;10.84;47.84;98521.00;4969551;28;20039;-78
2023/04/27 08:26:56;;;;;;;10.30;4.45;;;;;;;10.91;48.91;98502.81;4987073;28;20026;-78
2023/04/27 08:29:21;;;;;;;6.68;3.65;;;;;;;11.13;49.79;98509.16;4981826;28;20044;-78
2023/04/27 08:31:47;;;;;;;7.05;4.00;;;;;;;11.39;47.60;98507.78;4980060;28;20376;-78
2023/04/27 08:34:12;;;;;;;5.95;4.10;;;;;;;11.18;47.14;98504.97;4986960;28;20096;-76
2023/04/27 08:36:38;;;;;;;5.90;3.80;;;;;;;11.06;47.30;98497.72;4986749;28;20109;-76
2023/04/27 08:39:06;;;;;;;6.38;4.18;;;;;;;10.90;46.12;98495.78;4981053;28;20042;-76
2023/04/27 08:41:32;;;;;;;8.75;4.90;;;;;;;11.16;48.09;98512.44;4963855;28;20069;-78
2023/04/27 08:43:57;;;;;;;6.28;4.00;;;;;;;11.93;47.15;98503.63;4985268;28;20066;-78
2023/04/27 08:46:25;;;;;;;7.45;4.07;;;;;;;11.61;46.62;98499.81;4970316;28;20026;-77
2023/04/27 08:48:52;;;;;;;6.13;3.72;;;;;;;11.81;46.29;98508.28;4965638;28;20496;-78
2023/04/27 08:51:18;;;;;;;8.38;4.63;;;;;;;11.68;45.00;98511.28;4991451;28;20502;-78
2023/04/27 08:53:48;;;;;;;7.68;4.00;;;;;;;11.39;47.53;98512.38;4981311;28;20030;-78
2023/04/27 08:56:13;;;;;;;8.27;4.07;;;;;;;11.51;45.59;98502.31;4991645;28;20036;-78
2023/04/27 08:58:39;;;;;;;5.07;3.72;;;;;;;11.35;45.57;98503.09;4980986;28;20034;-76
2023/04/27 09:01:07;;;;;;;8.63;4.20;;;;;;;11.79;45.62;98513.91;4980540;28;20027;-76
2023/04/27 09:03:34;;;;;;;4.38;3.70;;;;;;;12.47;44.68;98502.84;4969045;28;20053;-77
2023/04/27 09:06:01;;;;;;;9.05;4.30;;;;;;;11.65;45.43;98501.78;4973334;28;20030;-79
2023/04/27 09:08:26;;;;;;;7.80;4.00;;;;;;;11.81;45.88;98500.16;4967911;28;20117;-78
2023/04/27 09:10:53;;;;;;;7.45;4.07;;;;;;;12.30;46.57;98501.22;4980529;28;20127;-77
2023/04/27 09:13:19;;;;;;;6.63;3.90;;;;;;;12.27;44.46;98505.25;4984759;28;20412;-76
2023/04/27 09:15:50;;;;;;;5.65;3.78;;;;;;;12.46;43.06;98495.78;4985983;28;20026;-75
2023/04/27 09:18:18;;;;;;;10.00;4.05;;;;;;;13.10;44.35;98493.38;4964965;28;20030;-77
2023/04/27 09:20:44;;;;;;;6.85;3.60;;;;;;;12.25;45.11;98504.66;4979022;28;20111;-76
2023/04/27 09:23:10;;;;;;;6.05;3.80;;;;;;;11.64;44.76;98491.25;4983734;28;20078;-77
2023/04/27 09:25:35;;;;;;;7.32;3.80;;;;;;;12.37;46.70;98497.28;4969935;28;20034;-77
2023/04/27 09:28:00;;;;;;;7.88;4.38;;;;;;;12.00;44.43;98482.69;4964455;28;20427;-78
2023/04/27 09:30:27;;;;;;;4.57;3.50;;;;;;;12.52;46.25;98474.25;4978813;28;20015;-77
2023/04/27 09:32:55;;;;;;;7.45;4.03;;;;;;;12.14;43.76;98480.44;5012750;28;20415;-76
2023/04/27 09:35:26;;;;;;;5.60;4.10;;;;;;;12.07;44.79;98477.09;4990511;28;20022;-75
2023/04/27 09:37:52;;;;;;;6.25;3.60;;;;;;;12.68;43.94;98467.97;4981194;28;20073;-76
2023/04/27 09:40:26;;;;;;;6.80;4.03;;;;;;;12.54;41.34;98472.94;5009734;28;20029;-76
2023/04/27 09:42:53;;;;;;;6.22;3.60;;;;;;;12.55;43.08;98468.34;4982207;28;20044;-78
2023/04/27 09:45:19;;;;;;;6.50;3.40;;;;;;;11.64;44.05;98469.66;4979863;28;20499;-77
2023/04/27 09:47:45;;;;;;;8.35;3.83;;;;;;;11.81;43.59;98473.19;4981974;28;20027;-77
2023/04/27 09:50:12;;;;;;;7.72;3.42;;;;;;;12.12;43.97;98486.09;4985361;28;20026;-77
2023/04/27 09:52:37;;;;;;;5.57;3.75;;;;;;;12.25;43.29;98474.94;4972532;28;20066;-77
2023/04/27 09:55:03;;;;;;;7.35;4.05;;;;;;;12.41;43.87;98468.72;4993156;28;20109;-77
2023/04/27 09:57:36;;;;;;;8.68;4.15;;;;;;;12.44;41.19;98460.09;4996803;28;20493;-77
2023/04/27 10:00:09;;;;;;;7.85;3.75;;;;;;;13.15;40.82;98458.28;4953562;28;20042;-78
2023/04/27 10:03:06;;;;;;;8.13;3.50;;;;;;;13.52;39.70;98453.78;4994606;28;20389;-78
2023/04/27 10:05:44;;;;;;;4.95;3.50;;;;;;;13.85;39.44;98444.59;4980847;28;20046;-77
2023/04/27 10:08:10;;;;;;;8.75;3.78;;;;;;;13.35;43.42;98458.50;4984808;28;20085;-77
2023/04/27 10:10:49;;;;;;;7.50;4.03;;;;;;;12.91;39.37;98446.09;5000721;28;20023;-75
2023/04/27 10:13:25;;;;;;;7.43;4.03;;;;;;;13.08;41.71;98463.09;4983792;28;20038;-78
2023/04/27 10:15:51;;;;;;;7.55;4.22;;;;;;;12.44;40.49;98460.09;4984889;28;20133;-77
2023/04/27 10:18:29;;;;;;;8.00;4.30;;;;;;;12.71;41.38;98451.25;4980866;28;20034;-77
2023/04/27 10:20:56;;;;;;;10.85;4.32;;;;;;;12.65;39.22;98453.06;4977980;28;20468;-78
2023/04/27 10:23:24;;;;;;;7.72;4.25;;;;;;;13.33;39.08;98447.13;4980828;28;20047;-77
2023/04/27 10:25:49;;;;;;;7.13;4.45;;;;;;;13.02;40.12;98442.44;4984816;28;20046;-78
2023/04/27 10:28:16;;;;;;;9.25;4.40;;;;;;;12.98;43.89;98441.31;4983787;28;20545;-77
2023/04/27 10:30:47;;;;;;;7.28;4.07;;;;;;;12.30;44.10;98444.50;4978083;28;20030;-78
2023/04/27 10:33:16;;;;;;;7.30;4.07;;;;;;;12.18;42.16;98441.91;4964031;28;20477;-77
2023/04/27 10:35:44;;;;;;;9.30;4.70;;;;;;;12.65;38.86;98441.47;4991144;28;20043;-77
2023/04/27 10:38:22;;;;;;;7.32;4.47;;;;;;;13.13;39.20;98444.22;4963103;28;20039;-77
2023/04/27 10:41:00;;;;;;;6.13;4.13;;;;;;;12.56;41.39;98442.94;4994954;28;20552;-77
2023/04/27 10:43:27;;;;;;;8.50;4.40;;;;;;;12.40;43.14;98440.06;4989110;28;20038;-77
2023/04/27 10:45:53;;;;;;;7.25;4.10;;;;;;;12.28;42.43;98436.66;4980225;28;20542;-77
2023/04/27 10:48:19;;;;;;;6.53;4.05;;;;;;;12.51;41.99;98440.22;4978085;28;20046;-78
2023/04/27 10:50:45;;;;;;;9.35;4.32;;;;;;;12.53;41.64;98438.06;4966604;28;20023;-78
2023/04/27 10:53:11;;;;;;;8.15;3.63;;;;;;;12.69;39.11;98429.09;4974739;28;20085;-78
2023/04/27 10:55:37;;;;;;;7.43;3.80;;;;;;;12.73;37.65;98422.09;4992226;28;20046;-77
2023/04/27 10:58:03;;;;;;;7.35;4.10;;;;;;;12.75;40.89;98430.75;4989749;28;20072;-78
2023/04/27 11:00:37;;;;;;;6.68;4.00;;;;;;;12.73;41.10;98432.91;4980383;28;20425;-77
2023/04/27 11:03:10;;;;;;;7.22;3.70;;;;;;;12.74;39.30;98427.25;4974532;28;20109;-78
2023/04/27 11:05:36;;;;;;;6.90;3.70;;;;;;;12.94;39.93;98426.66;4980082;28;20121;-77
2023/04/27 11:08:05;;;;;;;7.15;3.78;;;;;;;12.79;41.65;98431.91;4984524;28;20037;-78
2023/04/27 11:10:31;;;;;;;6.05;3.67;;;;;;;12.41;40.03;98425.50;4983307;28;20392;-78
2023/04/27 11:12:57;;;;;;;9.32;4.55;;;;;;;12.34;41.74;98418.66;4978314;28;20030;-77
2023/04/27 11:15:22;;;;;;;6.25;4.70;;;;;;;12.68;37.97;98425.56;4983201;28;20041;-78
2023/04/27 11:17:48;;;;;;;9.82;4.45;;;;;;;13.45;37.98;98434.25;4988238;28;20085;-78
2023/04/27 11:20:15;;;;;;;7.75;4.53;;;;;;;14.13;36.53;98421.78;4986212;28;20121;-77
2023/04/27 11:22:45;;;;;;;6.88;3.72;;;;;;;13.95;36.76;98423.03;4981518;28;20037;-77
2023/04/27 11:25:11;;;;;;;8.25;4.30;;;;;;;13.79;36.81;98422.06;4983446;28;20496;-77
2023/04/27 11:27:37;;;;;;;8.27;4.20;;;;;;;14.01;35.18;98419.25;4988080;28;20023;-78
2023/04/27 11:30:04;;;;;;;5.75;4.10;;;;;;;14.53;35.82;98425.56;4987062;28;20034;-78
2023/04/27 11:32:30;;;;;;;6.20;4.15;;;;;;;14.41;36.88;98418.72;4965276;28;20065;-78
2023/04/27 11:34:55;;;;;;;6.60;4.68;;;;;;;14.86;35.70;98416.22;4981882;28;20125;-77